Aéroport int. de Victoria, Colombie-Britannique

Conditions des dernières 24 heures

Ce tableau est un sommaire des conditions météo couvrant les dernières 24 heures. Ce sommaire inclut les paramètres suivants: température, humidité, point de rosée, direction et vitesse du vent, pression barométrique, facteur de refroidissement éolien ou indice humidex.
Date / Heure
(HAP)
Conditions Temp (°F) Humidite (%) Point de rose (°F) Vent (mph) Pression (pouces) Vis (mi) Humidex
16 septembre 2014
18:00 Généralement nuageux 58 82 53 SE 10 29.8 20 *
17:00 Généralement nuageux 61 75 53 SE 11 29.8 20 *
16:00 Généralement nuageux 63 69 52 ESE 12 29.8 20 *
15:00 Généralement nuageux 64 68 53 ESE 11 29.9 20 *
14:00 Partiellement nuageux 65 60 51 SE 13 rafale 19 29.9 20 *
13:00 Généralement nuageux 63 61 50 ESE 9 29.9 20 *
12:00 Généralement ensoleillé 65 58 50 ESE 4 29.9 20 *
11:00 Généralement ensoleillé 65 56 49 SE 4 29.9 20 *
10:00 Partiellement nuageux 64 60 50 calme 29.9 20 *
9:00 Généralement ensoleillé 60 66 49 ONO 5 29.9 30 *
8:00 Partiellement nuageux 56 77 49 OSO 3 29.9 30 *
7:00 Partiellement nuageux 51   81 45 OSO 5 29.9 30 *
6:00 Généralement dégagé 51   78 44 OSO 5 29.9 30 *
5:00 Généralement dégagé 52 79 46 OSO 5 29.9 30 *
4:00 Généralement dégagé 55 76 47 OSO 7 29.8 30 *
3:00 Dégagé 56 75 48 O 5 29.8 30 *
2:00 Généralement dégagé 56 63 44 O 4 29.8 30 *
1:00 Dégagé 53 76 46 OSO 5 29.8 30 *
0:00 Dégagé 55 66 44 SSO 6 29.8 30 *
15 septembre 2014
23:00 Dégagé 58 63 46 O 4 29.8 30 *
22:00 Dégagé 61 53 44 SSO 3 29.8 30 *
21:00 Généralement dégagé 63 66 51 ONO 6 29.8 30 *
20:00 Généralement dégagé 65 48 45 calme 29.8 30 *
19:00 Généralement ensoleillé 74 39 48 S 3 29.8 30 *
18:00 Généralement ensoleillé 78   31 46 SE 4 29.8 30 79
N.D.
non disponible
 ↑ 
température la plus haute
 ↓ 
température la plus basse
*
Valeur non significative.

Si vous désirez plus de données historiques sur les conditions météo, s.v.p. visitez Données climatologiques en ligne.